Time;durP1;ratioP1;P1;durP2;ratioP2;P2;SDS_P1;SDS_P2;PMS_P1;PMS_P2;Temp;Humidity;BMP_temperature;BMP_pressure;BME280_temperature;BME280_humidity;BME280_pressure;Samples;Min_cycle;Max_cycle;Signal;HPM_P1;HPM_P2
2023/10/28 00:01:26;;;;;;;2.25;0.95;;;;;;;;;;5105578;27;20050;-69
2023/10/28 00:03:56;;;;;;;0.50;0.50;;;;;;;;;;5112951;28;20452;-69
2023/10/28 00:06:23;;;;;;;1.27;0.70;;;;;;;;;;5109980;28;20051;-68
2023/10/28 00:08:49;;;;;;;2.05;0.50;;;;;;;;;;5105681;28;20043;-69
2023/10/28 00:11:19;;;;;;;0.95;0.80;;;;;;;;;;5104704;28;20134;-69
2023/10/28 00:13:45;;;;;;;0.63;0.60;;;;;;;;;;5108220;28;20055;-68
2023/10/28 00:16:12;;;;;;;0.45;0.45;;;;;;;;;;5107843;28;20506;-69
2023/10/28 00:18:39;;;;;;;1.08;0.60;;;;;;;;;;5104606;28;20054;-69
2023/10/28 00:21:09;;;;;;;0.50;0.50;;;;;;;;;;5102883;28;20054;-69
2023/10/28 00:23:36;;;;;;;1.38;0.80;;;;;;;;;;5104679;28;20044;-69
2023/10/28 00:26:03;;;;;;;0.63;0.50;;;;;;;;;;5103480;28;20040;-69
2023/10/28 00:28:32;;;;;;;1.08;0.40;;;;;;;;;;5105395;28;20130;-68
2023/10/28 00:30:59;;;;;;;2.45;0.70;;;;;;;;;;5105346;28;20048;-69
2023/10/28 00:33:26;;;;;;;1.20;0.60;;;;;;;;;;5104894;28;20066;-68
2023/10/28 00:35:53;;;;;;;1.23;0.75;;;;;;;;;;5108126;28;20044;-69
2023/10/28 00:38:22;;;;;;;2.05;0.57;;;;;;;;;;5104913;28;20047;-69
2023/10/28 00:40:48;;;;;;;0.88;0.88;;;;;;;;;;5103001;28;20075;-69
2023/10/28 00:43:15;;;;;;;1.33;0.70;;;;;;;;;;5105540;28;20044;-69
2023/10/28 00:45:42;;;;;;;1.13;0.50;;;;;;;;;;5109531;28;20070;-69
2023/10/28 00:48:09;;;;;;;1.17;0.70;;;;;;;;;;5105271;28;20071;-69
2023/10/28 00:50:36;;;;;;;2.00;0.70;;;;;;;;;;5111399;28;20044;-69
2023/10/28 00:53:03;;;;;;;1.85;0.60;;;;;;;;;;5108050;28;20054;-69
2023/10/28 00:55:31;;;;;;;1.02;1.02;;;;;;;;;;5104561;28;20047;-69
2023/10/28 00:57:58;;;;;;;0.82;0.60;;;;;;;;;;5102858;28;20055;-69
2023/10/28 01:00:25;;;;;;;0.50;0.50;;;;;;;;;;5113141;28;20047;-69
2023/10/28 01:02:52;;;;;;;2.13;0.60;;;;;;;;;;5097511;28;20048;-68
2023/10/28 01:05:20;;;;;;;0.75;0.60;;;;;;;;;;5107649;28;20514;-69
2023/10/28 01:07:47;;;;;;;0.85;0.60;;;;;;;;;;5105711;27;20504;-68
2023/10/28 01:10:25;;;;;;;2.28;0.70;;;;;;;;;;5110156;28;20052;-69
2023/10/28 01:12:53;;;;;;;0.68;0.63;;;;;;;;;;5108191;28;20048;-69
2023/10/28 01:15:20;;;;;;;0.60;0.60;;;;;;;;;;5104205;27;20056;-69
2023/10/28 01:17:46;;;;;;;0.98;0.70;;;;;;;;;;5108093;28;20046;-69
2023/10/28 01:20:13;;;;;;;1.38;0.60;;;;;;;;;;5104766;28;20499;-69
2023/10/28 01:22:41;;;;;;;1.48;0.70;;;;;;;;;;5104503;28;20050;-69
2023/10/28 01:25:09;;;;;;;0.80;0.70;;;;;;;;;;5106928;28;20054;-69
2023/10/28 01:27:36;;;;;;;1.63;0.60;;;;;;;;;;5110441;28;20048;-69
2023/10/28 01:30:03;;;;;;;0.88;0.70;;;;;;;;;;5107519;28;20461;-69
2023/10/28 01:32:30;;;;;;;0.85;0.80;;;;;;;;;;5104676;28;20252;-69
2023/10/28 01:34:57;;;;;;;1.73;0.98;;;;;;;;;;5101070;28;20118;-68
2023/10/28 01:37:23;;;;;;;0.73;0.73;;;;;;;;;;5110527;28;20043;-69
2023/10/28 01:39:52;;;;;;;1.83;0.77;;;;;;;;;;5105243;28;20048;-68
2023/10/28 01:42:20;;;;;;;2.15;1.00;;;;;;;;;;5103649;28;20047;-69
2023/10/28 01:44:47;;;;;;;3.30;0.80;;;;;;;;;;5108874;28;20040;-69
2023/10/28 01:47:14;;;;;;;0.90;0.80;;;;;;;;;;5106756;28;20050;-69
2023/10/28 01:49:42;;;;;;;2.60;1.10;;;;;;;;;;5110470;28;20606;-69
2023/10/28 01:52:10;;;;;;;2.13;1.00;;;;;;;;;;5102157;28;20068;-69
2023/10/28 01:54:37;;;;;;;1.77;0.85;;;;;;;;;;5106272;28;20047;-69
2023/10/28 01:57:06;;;;;;;1.73;0.93;;;;;;;;;;5101811;28;20052;-69
2023/10/28 01:59:33;;;;;;;2.33;1.00;;;;;;;;;;5105495;28;20043;-68
2023/10/28 02:02:01;;;;;;;3.15;0.98;;;;;;;;;;5109289;28;20054;-69
2023/10/28 02:04:28;;;;;;;2.22;0.80;;;;;;;;;;5103388;28;20054;-68
2023/10/28 02:06:54;;;;;;;3.08;0.98;;;;;;;;;;5107619;28;20050;-69
2023/10/28 02:09:21;;;;;;;2.92;0.90;;;;;;;;;;5100261;28;20054;-69
2023/10/28 02:11:49;;;;;;;3.83;1.00;;;;;;;;;;5100745;28;20496;-69
2023/10/28 02:14:17;;;;;;;2.33;1.00;;;;;;;;;;5105848;28;20500;-69
2023/10/28 02:16:43;;;;;;;3.63;0.93;;;;;;;;;;5100602;28;20570;-69
2023/10/28 02:19:11;;;;;;;4.72;1.05;;;;;;;;;;5106335;28;20048;-69
2023/10/28 02:21:37;;;;;;;1.40;0.98;;;;;;;;;;5105625;28;20055;-69
2023/10/28 02:24:05;;;;;;;2.45;1.15;;;;;;;;;;5104813;28;20047;-69
2023/10/28 02:26:33;;;;;;;5.20;1.20;;;;;;;;;;5105663;28;20053;-69
2023/10/28 02:29:01;;;;;;;8.85;1.33;;;;;;;;;;5103389;28;20051;-69
2023/10/28 02:31:29;;;;;;;2.42;1.00;;;;;;;;;;5106518;28;20054;-69
2023/10/28 02:33:56;;;;;;;1.35;0.80;;;;;;;;;;5100713;28;20218;-69
2023/10/28 02:36:22;;;;;;;2.83;0.95;;;;;;;;;;5099167;28;20495;-69
2023/10/28 02:38:49;;;;;;;2.88;1.00;;;;;;;;;;5103877;28;20048;-69
2023/10/28 02:41:15;;;;;;;1.30;0.88;;;;;;;;;;5102812;28;20047;-69
2023/10/28 02:43:42;;;;;;;2.15;0.90;;;;;;;;;;5106877;28;20054;-69
2023/10/28 02:46:09;;;;;;;2.47;1.20;;;;;;;;;;5105813;28;20056;-69
2023/10/28 02:48:37;;;;;;;2.60;1.20;;;;;;;;;;5101689;28;20050;-68
2023/10/28 02:51:04;;;;;;;4.55;1.52;;;;;;;;;;5103837;28;20043;-69
2023/10/28 02:53:31;;;;;;;3.83;0.95;;;;;;;;;;5102715;28;20043;-69
2023/10/28 02:55:58;;;;;;;2.95;1.10;;;;;;;;;;5105554;28;20048;-68
2023/10/28 02:58:24;;;;;;;3.03;1.00;;;;;;;;;;5102980;28;20048;-69
2023/10/28 03:00:51;;;;;;;3.72;1.25;;;;;;;;;;5095562;28;20044;-69
2023/10/28 03:03:17;;;;;;;5.38;1.42;;;;;;;;;;5101891;28;20044;-69
2023/10/28 03:05:45;;;;;;;2.88;1.00;;;;;;;;;;5100886;28;20050;-69
2023/10/28 03:08:12;;;;;;;1.35;0.95;;;;;;;;;;5101451;28;20048;-69
2023/10/28 03:10:39;;;;;;;2.65;1.00;;;;;;;;;;5104092;28;20151;-68
2023/10/28 03:13:05;;;;;;;2.85;1.05;;;;;;;;;;5106645;28;20046;-69
2023/10/28 03:15:32;;;;;;;5.03;1.20;;;;;;;;;;5106191;28;20047;-69
2023/10/28 03:18:00;;;;;;;3.20;1.00;;;;;;;;;;5106372;28;20047;-69
2023/10/28 03:20:27;;;;;;;2.33;1.30;;;;;;;;;;5113394;28;20131;-69
2023/10/28 03:22:55;;;;;;;2.78;1.13;;;;;;;;;;5104628;28;20511;-69
2023/10/28 03:25:22;;;;;;;3.83;1.25;;;;;;;;;;5099038;28;20100;-69
2023/10/28 03:27:48;;;;;;;3.92;1.52;;;;;;;;;;5113924;28;20524;-69
2023/10/28 03:30:15;;;;;;;2.40;1.20;;;;;;;;;;5105299;28;20040;-69
2023/10/28 03:32:41;;;;;;;2.50;0.90;;;;;;;;;;5103736;28;20054;-68
2023/10/28 03:35:08;;;;;;;2.97;1.27;;;;;;;;;;5105899;28;20048;-69
2023/10/28 03:37:36;;;;;;;3.08;1.30;;;;;;;;;;5108100;28;20055;-69
2023/10/28 03:40:04;;;;;;;3.38;1.45;;;;;;;;;;5111972;28;20122;-70
2023/10/28 03:42:31;;;;;;;4.00;2.90;;;;;;;;;;5108928;28;20097;-69
2023/10/28 03:44:59;;;;;;;7.05;3.00;;;;;;;;;;5106583;28;20044;-68
2023/10/28 03:47:26;;;;;;;3.65;1.95;;;;;;;;;;5110013;28;20051;-69
2023/10/28 03:49:53;;;;;;;1.70;1.13;;;;;;;;;;5110512;28;20048;-69
2023/10/28 03:52:19;;;;;;;3.03;1.40;;;;;;;;;;5106091;28;20050;-69
2023/10/28 03:54:46;;;;;;;1.73;1.58;;;;;;;;;;5107913;28;20052;-69
2023/10/28 03:57:14;;;;;;;3.25;1.70;;;;;;;;;;5108321;28;20508;-68
2023/10/28 03:59:40;;;;;;;7.95;3.20;;;;;;;;;;5106558;28;20527;-69
2023/10/28 04:02:07;;;;;;;3.47;1.70;;;;;;;;;;5108613;28;20044;-69
2023/10/28 04:04:33;;;;;;;2.35;1.15;;;;;;;;;;5105358;28;20060;-69
2023/10/28 04:07:00;;;;;;;4.90;1.30;;;;;;;;;;5105953;28;20048;-69
2023/10/28 04:09:27;;;;;;;3.75;1.27;;;;;;;;;;5106145;28;20389;-69
2023/10/28 04:11:53;;;;;;;5.13;1.48;;;;;;;;;;5105621;28;20491;-69
2023/10/28 04:14:21;;;;;;;3.80;1.10;;;;;;;;;;5109444;28;20053;-68
2023/10/28 04:16:48;;;;;;;3.42;1.40;;;;;;;;;;5105698;28;20060;-69
2023/10/28 04:19:14;;;;;;;4.68;1.50;;;;;;;;;;5109415;28;20044;-69
2023/10/28 04:21:41;;;;;;;3.38;1.05;;;;;;;;;;5104849;28;20054;-69
2023/10/28 04:24:09;;;;;;;12.40;1.80;;;;;;;;;;5112106;28;20044;-68
2023/10/28 04:26:36;;;;;;;2.10;1.20;;;;;;;;;;5107277;28;20130;-69
2023/10/28 04:29:03;;;;;;;6.22;2.50;;;;;;;;;;5106899;28;20489;-69
2023/10/28 04:31:31;;;;;;;5.93;1.90;;;;;;;;;;5109024;28;20047;-69
2023/10/28 04:33:58;;;;;;;7.35;1.40;;;;;;;;;;5105781;27;20044;-69
2023/10/28 04:36:25;;;;;;;4.15;1.20;;;;;;;;;;5109210;28;20048;-68
2023/10/28 04:38:51;;;;;;;6.78;1.25;;;;;;;;;;5105492;28;20055;-68
2023/10/28 04:41:18;;;;;;;6.35;1.83;;;;;;;;;;5109066;28;20039;-68
2023/10/28 04:43:45;;;;;;;5.90;1.40;;;;;;;;;;5106307;28;20092;-68
2023/10/28 04:46:11;;;;;;;6.07;1.70;;;;;;;;;;5107446;28;20101;-69
2023/10/28 04:48:42;;;;;;;10.15;1.67;;;;;;;;;;5106503;28;20384;-69
2023/10/28 04:51:09;;;;;;;8.45;1.90;;;;;;;;;;5103372;28;20467;-69
2023/10/28 04:53:35;;;;;;;5.35;1.50;;;;;;;;;;5103903;28;20210;-69
2023/10/28 04:56:02;;;;;;;4.47;1.67;;;;;;;;;;5106091;28;20521;-69
2023/10/28 04:58:29;;;;;;;5.82;1.42;;;;;;;;;;5104351;28;20096;-68
2023/10/28 05:00:55;;;;;;;5.72;1.48;;;;;;;;;;5106065;28;20048;-69
2023/10/28 05:03:22;;;;;;;6.95;1.98;;;;;;;;;;5095986;28;20044;-69
2023/10/28 05:05:50;;;;;;;6.80;1.98;;;;;;;;;;5104357;28;20516;-69
2023/10/28 05:08:17;;;;;;;7.15;1.77;;;;;;;;;;5103718;28;20484;-69
2023/10/28 05:10:43;;;;;;;9.65;1.75;;;;;;;;;;5106027;28;20047;-69
2023/10/28 05:13:10;;;;;;;6.68;1.40;;;;;;;;;;5103013;28;20518;-69
2023/10/28 05:15:37;;;;;;;4.82;1.40;;;;;;;;;;5102628;28;20054;-69
2023/10/28 05:18:04;;;;;;;4.88;1.60;;;;;;;;;;5103176;28;20079;-69
2023/10/28 05:20:33;;;;;;;6.82;1.60;;;;;;;;;;5106668;28;20047;-69
2023/10/28 05:23:01;;;;;;;6.57;1.50;;;;;;;;;;5102041;28;20196;-70
2023/10/28 05:25:27;;;;;;;6.10;1.77;;;;;;;;;;5107406;28;20526;-68
2023/10/28 05:27:54;;;;;;;5.57;1.08;;;;;;;;;;5104262;28;20048;-69
2023/10/28 05:30:20;;;;;;;4.28;1.45;;;;;;;;;;5108155;28;20488;-68
2023/10/28 05:32:47;;;;;;;5.40;1.35;;;;;;;;;;5101264;28;20059;-69
2023/10/28 05:35:14;;;;;;;6.20;1.60;;;;;;;;;;5102219;28;20066;-69
2023/10/28 05:37:40;;;;;;;6.63;1.55;;;;;;;;;;5105114;28;20043;-69
2023/10/28 05:40:10;;;;;;;7.55;1.50;;;;;;;;;;5108574;28;20044;-69
2023/10/28 05:42:37;;;;;;;5.43;1.50;;;;;;;;;;5102543;28;20400;-69
2023/10/28 05:45:07;;;;;;;9.63;3.75;;;;;;;;;;5105659;28;20044;-69
2023/10/28 05:47:34;;;;;;;5.65;1.70;;;;;;;;;;5102029;28;20054;-68
2023/10/28 05:50:04;;;;;;;5.78;1.30;;;;;;;;;;5104794;28;20048;-68
2023/10/28 05:52:31;;;;;;;5.30;1.58;;;;;;;;;;5103327;28;20450;-69
2023/10/28 05:54:58;;;;;;;4.20;1.63;;;;;;;;;;5104161;28;20048;-69
2023/10/28 05:57:27;;;;;;;5.93;1.75;;;;;;;;;;5106687;28;20043;-69
2023/10/28 05:59:53;;;;;;;6.68;1.67;;;;;;;;;;5102728;28;20051;-69
2023/10/28 06:02:20;;;;;;;5.40;1.90;;;;;;;;;;5103371;28;20047;-69
2023/10/28 06:04:47;;;;;;;6.80;2.35;;;;;;;;;;5100513;28;20048;-69
2023/10/28 06:07:13;;;;;;;7.63;2.05;;;;;;;;;;5107060;28;20044;-68
2023/10/28 06:09:40;;;;;;;4.78;1.42;;;;;;;;;;5103094;28;20050;-69
2023/10/28 06:12:07;;;;;;;5.13;1.90;;;;;;;;;;5111798;28;20045;-69
2023/10/28 06:14:35;;;;;;;8.07;1.48;;;;;;;;;;5108892;28;20080;-69
2023/10/28 06:17:01;;;;;;;7.90;1.75;;;;;;;;;;5100390;28;20148;-68
2023/10/28 06:19:29;;;;;;;3.67;1.52;;;;;;;;;;5106430;28;20039;-68
2023/10/28 06:21:56;;;;;;;3.72;1.30;;;;;;;;;;5103370;28;20044;-69
2023/10/28 06:24:22;;;;;;;6.78;1.55;;;;;;;;;;5103035;28;20047;-69
2023/10/28 06:26:49;;;;;;;3.30;1.30;;;;;;;;;;5100340;28;20480;-69
2023/10/28 06:29:16;;;;;;;7.13;1.40;;;;;;;;;;5105207;28;20131;-69
2023/10/28 06:31:44;;;;;;;6.88;1.67;;;;;;;;;;5103559;28;20427;-68
2023/10/28 06:34:11;;;;;;;4.22;1.60;;;;;;;;;;5106337;28;20074;-69
2023/10/28 06:36:40;;;;;;;6.13;1.55;;;;;;;;;;5106258;28;20054;-69
2023/10/28 06:39:08;;;;;;;5.13;1.67;;;;;;;;;;5101413;28;20121;-69
2023/10/28 06:41:35;;;;;;;4.72;1.42;;;;;;;;;;5105462;28;20044;-68
2023/10/28 06:44:05;;;;;;;3.80;1.75;;;;;;;;;;5104559;28;20169;-69
2023/10/28 06:46:32;;;;;;;4.20;1.30;;;;;;;;;;5108369;28;20415;-69
2023/10/28 06:49:01;;;;;;;6.18;1.45;;;;;;;;;;5106997;28;20040;-69
2023/10/28 06:51:27;;;;;;;4.18;1.60;;;;;;;;;;5110088;28;20096;-69
2023/10/28 06:53:54;;;;;;;5.10;1.35;;;;;;;;;;5102736;28;20492;-69
2023/10/28 06:56:20;;;;;;;3.75;1.20;;;;;;;;;;5106572;28;20054;-69
2023/10/28 06:58:47;;;;;;;2.50;1.13;;;;;;;;;;5108647;28;20561;-69
2023/10/28 07:01:14;;;;;;;4.85;1.00;;;;;;;;;;5107552;28;20040;-69
2023/10/28 07:03:41;;;;;;;4.97;1.65;;;;;;;;;;5110949;28;20054;-69
2023/10/28 07:06:14;;;;;;;4.53;1.20;;;;;;;;;;5112614;28;20047;-69
2023/10/28 07:08:40;;;;;;;2.30;1.58;;;;;;;;;;5110867;28;20469;-69
2023/10/28 07:11:07;;;;;;;3.15;1.20;;;;;;;;;;5108562;28;20043;-69
2023/10/28 07:13:33;;;;;;;2.47;1.00;;;;;;;;;;5105731;28;20044;-69
2023/10/28 07:16:01;;;;;;;3.05;1.25;;;;;;;;;;5104162;28;20500;-69
2023/10/28 07:18:29;;;;;;;1.95;0.90;;;;;;;;;;5106130;28;20100;-69
2023/10/28 07:20:56;;;;;;;3.60;1.10;;;;;;;;;;5107151;28;20415;-69
2023/10/28 07:23:26;;;;;;;3.85;0.90;;;;;;;;;;5102688;28;20044;-69
2023/10/28 07:25:53;;;;;;;3.40;1.02;;;;;;;;;;5107150;28;20048;-69
2023/10/28 07:28:21;;;;;;;4.90;1.20;;;;;;;;;;5109465;28;20039;-69
2023/10/28 07:30:48;;;;;;;3.13;1.38;;;;;;;;;;5107606;28;20052;-69
2023/10/28 07:33:14;;;;;;;4.95;1.35;;;;;;;;;;5109878;28;20047;-69
2023/10/28 07:35:44;;;;;;;4.72;1.20;;;;;;;;;;5106817;28;20047;-69
2023/10/28 07:38:10;;;;;;;3.15;1.10;;;;;;;;;;5105764;28;20052;-69
2023/10/28 07:40:38;;;;;;;4.50;1.30;;;;;;;;;;5112370;28;20040;-69
2023/10/28 07:43:06;;;;;;;5.13;1.30;;;;;;;;;;5107315;28;20040;-69
2023/10/28 07:45:34;;;;;;;4.68;0.95;;;;;;;;;;5113040;27;20052;-69
2023/10/28 07:48:00;;;;;;;5.47;1.35;;;;;;;;;;5109892;28;20045;-69
2023/10/28 07:50:27;;;;;;;3.15;1.30;;;;;;;;;;5104986;28;20043;-69
2023/10/28 07:52:55;;;;;;;3.63;1.50;;;;;;;;;;5098726;28;20048;-69
2023/10/28 07:55:21;;;;;;;5.95;1.25;;;;;;;;;;5108993;28;20126;-69
2023/10/28 07:57:49;;;;;;;3.63;1.27;;;;;;;;;;5109305;28;20043;-69
2023/10/28 08:00:16;;;;;;;5.35;1.50;;;;;;;;;;5105528;28;20051;-69
2023/10/28 08:02:46;;;;;;;4.55;1.48;;;;;;;;;;5103774;28;20054;-69
2023/10/28 08:05:13;;;;;;;5.63;1.30;;;;;;;;;;5108115;28;20047;-69
2023/10/28 08:07:40;;;;;;;8.05;1.80;;;;;;;;;;5111496;28;20065;-69
2023/10/28 08:10:08;;;;;;;3.17;1.35;;;;;;;;;;5108430;28;20044;-69
2023/10/28 08:12:35;;;;;;;6.82;1.27;;;;;;;;;;5105041;28;20040;-69
2023/10/28 08:15:05;;;;;;;5.18;1.52;;;;;;;;;;5103172;28;20495;-69
2023/10/28 08:17:31;;;;;;;7.65;1.67;;;;;;;;;;5104406;28;20530;-69
2023/10/28 08:19:58;;;;;;;4.25;1.38;;;;;;;;;;5101963;28;20054;-69
2023/10/28 08:22:25;;;;;;;8.23;1.63;;;;;;;;;;5113663;28;20136;-69
2023/10/28 08:24:52;;;;;;;5.10;1.83;;;;;;;;;;5113705;28;20044;-73
2023/10/28 08:27:19;;;;;;;7.00;1.70;;;;;;;;;;5108597;28;20050;-72
2023/10/28 08:29:46;;;;;;;7.32;2.08;;;;;;;;;;5110400;28;20043;-72
2023/10/28 08:32:17;;;;;;;7.82;1.95;;;;;;;;;;5107460;28;20044;-71
2023/10/28 08:34:44;;;;;;;6.75;1.70;;;;;;;;;;5106462;27;20048;-71
2023/10/28 08:37:13;;;;;;;5.38;1.45;;;;;;;;;;5108428;28;20048;-71
2023/10/28 08:39:40;;;;;;;6.47;1.83;;;;;;;;;;5103414;28;20484;-71
2023/10/28 08:42:07;;;;;;;6.15;1.88;;;;;;;;;;5105856;28;20044;-71
2023/10/28 08:44:39;;;;;;;5.18;1.42;;;;;;;;;;5104433;28;20050;-71
2023/10/28 08:47:07;;;;;;;8.57;2.30;;;;;;;;;;5101519;28;20161;-68
2023/10/28 08:49:38;;;;;;;8.75;1.88;;;;;;;;;;5104622;28;20284;-68
2023/10/28 08:52:07;;;;;;;6.97;1.83;;;;;;;;;;5105370;28;20079;-68
2023/10/28 08:54:36;;;;;;;7.00;1.92;;;;;;;;;;5104479;28;20051;-68
2023/10/28 08:57:04;;;;;;;4.55;1.42;;;;;;;;;;5107074;28;20134;-68
2023/10/28 08:59:31;;;;;;;7.18;1.55;;;;;;;;;;5105023;28;20465;-68
2023/10/28 09:01:59;;;;;;;5.63;1.77;;;;;;;;;;5112188;28;20048;-68
2023/10/28 09:04:26;;;;;;;7.50;1.70;;;;;;;;;;5108980;28;20553;-68
2023/10/28 09:06:54;;;;;;;4.82;1.58;;;;;;;;;;5111902;28;20052;-69
2023/10/28 09:09:21;;;;;;;5.03;1.17;;;;;;;;;;5107721;28;20067;-68
2023/10/28 09:11:49;;;;;;;7.43;1.65;;;;;;;;;;5101670;28;20524;-68
2023/10/28 09:14:15;;;;;;;6.25;1.73;;;;;;;;;;5107253;28;20462;-68
2023/10/28 09:16:42;;;;;;;5.28;1.50;;;;;;;;;;5105068;28;20495;-68
2023/10/28 09:19:20;;;;;;;5.18;1.50;;;;;;;;;;5104956;28;20540;-68
2023/10/28 09:21:47;;;;;;;4.82;1.63;;;;;;;;;;5104621;28;20044;-68
2023/10/28 09:24:15;;;;;;;5.30;1.98;;;;;;;;;;5103580;28;20048;-70
2023/10/28 09:26:42;;;;;;;6.68;1.65;;;;;;;;;;5102801;28;20411;-69
2023/10/28 09:29:09;;;;;;;5.43;1.50;;;;;;;;;;5103545;28;20127;-68
2023/10/28 09:31:37;;;;;;;5.90;1.75;;;;;;;;;;5105985;28;20075;-68
2023/10/28 09:34:03;;;;;;;4.57;1.48;;;;;;;;;;5107035;28;20047;-68
2023/10/28 09:36:30;;;;;;;8.55;1.55;;;;;;;;;;5108450;28;20052;-68
2023/10/28 09:38:57;;;;;;;7.85;1.10;;;;;;;;;;5105612;28;20135;-68
2023/10/28 09:41:26;;;;;;;6.07;1.70;;;;;;;;;;5104527;28;20070;-68
2023/10/28 09:43:54;;;;;;;5.55;1.58;;;;;;;;;;5097308;28;20040;-68
2023/10/28 09:46:21;;;;;;;6.72;2.35;;;;;;;;;;5107342;28;20056;-68
2023/10/28 09:48:49;;;;;;;5.00;1.60;;;;;;;;;;5107094;28;21296;-68
2023/10/28 09:51:22;;;;;;;7.80;2.15;;;;;;;;;;5106455;28;20089;-68
2023/10/28 09:53:53;;;;;;;6.47;1.50;;;;;;;;;;5107119;28;20070;-68
2023/10/28 09:56:22;;;;;;;8.63;1.95;;;;;;;;;;5103101;28;20058;-68
2023/10/28 09:58:56;;;;;;;6.55;1.73;;;;;;;;;;5102106;28;20048;-68
2023/10/28 10:01:30;;;;;;;7.57;2.50;;;;;;;;;;5106353;28;20571;-68
2023/10/28 10:04:06;;;;;;;8.13;2.45;;;;;;;;;;5107400;28;20044;-68
2023/10/28 10:06:33;;;;;;;6.63;2.30;;;;;;;;;;5104593;28;20051;-68
2023/10/28 10:09:01;;;;;;;4.60;1.90;;;;;;;;;;5105764;28;20044;-68
2023/10/28 10:11:28;;;;;;;9.07;1.85;;;;;;;;;;5103473;28;20561;-68
2023/10/28 10:13:56;;;;;;;9.55;2.38;;;;;;;;;;5102939;28;20059;-68
2023/10/28 10:16:31;;;;;;;10.75;2.60;;;;;;;;;;5106267;28;20044;-68
2023/10/28 10:19:05;;;;;;;8.38;2.90;;;;;;;;;;5110297;28;20047;-68
2023/10/28 10:21:32;;;;;;;8.82;2.20;;;;;;;;;;5099729;28;20048;-68
2023/10/28 10:24:04;;;;;;;10.63;2.10;;;;;;;;;;5102982;28;20492;-68
2023/10/28 10:26:32;;;;;;;7.75;2.50;;;;;;;;;;5103265;28;20415;-68
2023/10/28 10:29:03;;;;;;;7.95;2.67;;;;;;;;;;5099341;28;20040;-68
2023/10/28 10:31:31;;;;;;;7.78;2.05;;;;;;;;;;5106854;28;20040;-68
2023/10/28 10:34:02;;;;;;;7.88;1.95;;;;;;;;;;5104373;28;20044;-68
2023/10/28 10:36:30;;;;;;;8.40;1.95;;;;;;;;;;5105419;28;20085;-68
2023/10/28 10:39:09;;;;;;;9.40;1.60;;;;;;;;;;5095107;28;20048;-68
2023/10/28 10:41:36;;;;;;;8.95;1.90;;;;;;;;;;5100021;28;20043;-68
2023/10/28 10:44:22;;;;;;;6.78;2.00;;;;;;;;;;5109677;28;20519;-68
2023/10/28 10:46:49;;;;;;;8.20;2.20;;;;;;;;;;5099580;28;20048;-68
2023/10/28 10:49:16;;;;;;;8.23;1.85;;;;;;;;;;5105894;28;20506;-68
2023/10/28 10:51:44;;;;;;;7.03;2.00;;;;;;;;;;5100759;28;20044;-68
2023/10/28 10:54:10;;;;;;;7.80;2.08;;;;;;;;;;5105267;28;20419;-68
2023/10/28 10:56:37;;;;;;;7.75;1.98;;;;;;;;;;5106362;28;20487;-67
2023/10/28 10:59:04;;;;;;;6.40;1.80;;;;;;;;;;5100749;28;20059;-68
2023/10/28 11:01:31;;;;;;;7.25;2.22;;;;;;;;;;5101953;28;20050;-68
2023/10/28 11:03:58;;;;;;;7.32;1.58;;;;;;;;;;5100674;28;20511;-68
2023/10/28 11:06:25;;;;;;;4.47;1.80;;;;;;;;;;5098947;28;20473;-68
2023/10/28 11:08:52;;;;;;;7.20;2.08;;;;;;;;;;5104221;28;20054;-68
2023/10/28 11:11:19;;;;;;;5.35;1.58;;;;;;;;;;5109148;28;20142;-68
2023/10/28 11:13:46;;;;;;;7.38;1.90;;;;;;;;;;5101598;28;20051;-68
2023/10/28 11:16:23;;;;;;;10.50;2.33;;;;;;;;;;5102503;28;20048;-68
2023/10/28 11:18:51;;;;;;;7.93;2.63;;;;;;;;;;5102795;28;20052;-68
2023/10/28 11:21:18;;;;;;;9.73;2.65;;;;;;;;;;5100768;28;20040;-68
2023/10/28 11:23:46;;;;;;;8.57;2.30;;;;;;;;;;5100846;28;20500;-68
2023/10/28 11:26:19;;;;;;;5.13;1.80;;;;;;;;;;5101605;28;20051;-68
2023/10/28 11:28:46;;;;;;;;;;;;;;;;;;5100356;28;20051;-68
2023/10/28 11:31:12;;;;;;;8.07;1.60;;;;;;;;;;5104554;28;20379;-68
2023/10/28 11:33:39;;;;;;;9.30;1.70;;;;;;;;;;5105232;28;20050;-68
2023/10/28 11:36:08;;;;;;;8.48;1.50;;;;;;;;;;5106031;28;20488;-68
2023/10/28 11:38:35;;;;;;;5.63;1.50;;;;;;;;;;5105262;28;20078;-68
2023/10/28 11:41:04;;;;;;;5.10;2.00;;;;;;;;;;5107254;28;20043;-68
2023/10/28 11:43:31;;;;;;;5.70;1.85;;;;;;;;;;5106215;28;20048;-68
2023/10/28 11:45:57;;;;;;;7.00;2.72;;;;;;;;;;5109177;28;20415;-68
2023/10/28 11:48:24;;;;;;;8.75;2.63;;;;;;;;;;5109479;28;20040;-67
2023/10/28 11:50:51;;;;;;;7.03;1.92;;;;;;;;;;5109673;28;20131;-68
2023/10/28 11:53:23;;;;;;;8.07;1.80;;;;;;;;;;5107528;28;20047;-68
2023/10/28 11:55:49;;;;;;;6.30;1.50;;;;;;;;;;5110127;28;20043;-68
2023/10/28 11:58:16;;;;;;;5.72;1.40;;;;;;;;;;5105337;28;20535;-68
2023/10/28 12:00:47;;;;;;;4.95;1.50;;;;;;;;;;5111204;28;20054;-68
2023/10/28 12:03:13;;;;;;;4.22;1.40;;;;;;;;;;5107218;28;20048;-68
2023/10/28 12:05:40;;;;;;;2.83;1.20;;;;;;;;;;5107961;28;20055;-68
2023/10/28 12:08:07;;;;;;;6.93;1.40;;;;;;;;;;5103913;28;20052;-68
2023/10/28 12:10:35;;;;;;;4.60;1.30;;;;;;;;;;5109786;28;20050;-68
2023/10/28 12:13:01;;;;;;;4.43;1.50;;;;;;;;;;5102532;28;20105;-68
2023/10/28 12:15:28;;;;;;;5.93;1.30;;;;;;;;;;5108875;28;20440;-68
2023/10/28 12:17:55;;;;;;;7.65;1.75;;;;;;;;;;5113539;28;20058;-68
2023/10/28 12:20:21;;;;;;;7.35;1.52;;;;;;;;;;5113625;28;20043;-68
2023/10/28 12:22:48;;;;;;;5.13;1.25;;;;;;;;;;5108591;28;20044;-68
2023/10/28 12:25:15;;;;;;;4.22;1.50;;;;;;;;;;5107902;28;20488;-68
2023/10/28 12:27:44;;;;;;;6.40;1.50;;;;;;;;;;5106146;28;20139;-68
2023/10/28 12:30:11;;;;;;;5.72;1.80;;;;;;;;;;5107743;28;20093;-68
2023/10/28 12:32:37;;;;;;;14.00;8.68;;;;;;;;;;5111056;28;20047;-68
2023/10/28 12:35:04;;;;;;;9.35;4.30;;;;;;;;;;5109650;28;20499;-68
2023/10/28 12:37:31;;;;;;;5.78;1.48;;;;;;;;;;5108676;28;20495;-68
2023/10/28 12:39:57;;;;;;;8.73;3.17;;;;;;;;;;5106061;28;20040;-68
2023/10/28 12:42:24;;;;;;;10.68;4.88;;;;;;;;;;5107970;28;20052;-68
2023/10/28 12:44:52;;;;;;;5.72;2.13;;;;;;;;;;5104758;28;20066;-68
2023/10/28 12:47:19;;;;;;;5.10;1.50;;;;;;;;;;5107341;28;20130;-68
2023/10/28 12:49:46;;;;;;;4.85;2.28;;;;;;;;;;5108124;28;20130;-68
2023/10/28 12:52:13;;;;;;;5.88;2.00;;;;;;;;;;5107804;28;20100;-68
2023/10/28 12:54:40;;;;;;;6.82;4.20;;;;;;;;;;5106219;28;20523;-68
2023/10/28 12:57:07;;;;;;;7.22;2.58;;;;;;;;;;5109526;28;20044;-68
2023/10/28 12:59:34;;;;;;;6.10;2.00;;;;;;;;;;5105400;28;20557;-68
2023/10/28 13:02:04;;;;;;;8.15;1.80;;;;;;;;;;5104332;28;20040;-68
2023/10/28 13:04:31;;;;;;;2.80;1.20;;;;;;;;;;5105098;28;20059;-68
2023/10/28 13:06:59;;;;;;;3.75;1.30;;;;;;;;;;5104504;28;20043;-68
2023/10/28 13:09:26;;;;;;;5.03;1.90;;;;;;;;;;5096420;28;20055;-68
2023/10/28 13:11:53;;;;;;;4.57;2.00;;;;;;;;;;5107551;28;20134;-68
2023/10/28 13:14:20;;;;;;;6.05;1.52;;;;;;;;;;5107315;28;20518;-68
2023/10/28 13:16:48;;;;;;;4.25;1.48;;;;;;;;;;5102264;28;20057;-68
2023/10/28 13:19:16;;;;;;;3.53;1.73;;;;;;;;;;5106976;28;20464;-68
2023/10/28 13:21:44;;;;;;;5.57;4.22;;;;;;;;;;5106476;28;20502;-68
2023/10/28 13:24:10;;;;;;;5.72;2.55;;;;;;;;;;5103029;28;20047;-68
2023/10/28 13:26:37;;;;;;;5.18;1.90;;;;;;;;;;5111681;28;20044;-68
2023/10/28 13:29:03;;;;;;;4.47;2.45;;;;;;;;;;5103864;28;20040;-68
2023/10/28 13:31:30;;;;;;;4.28;2.13;;;;;;;;;;5111006;28;20054;-68
2023/10/28 13:33:57;;;;;;;6.72;3.00;;;;;;;;;;5100108;28;20050;-68
2023/10/28 13:36:25;;;;;;;3.90;1.63;;;;;;;;;;5105148;28;20047;-68
2023/10/28 13:38:51;;;;;;;4.13;1.70;;;;;;;;;;5100524;28;20050;-68
2023/10/28 13:41:18;;;;;;;3.28;1.35;;;;;;;;;;5106198;28;20054;-68
2023/10/28 13:43:45;;;;;;;4.03;1.63;;;;;;;;;;5110286;28;20050;-68
2023/10/28 13:46:12;;;;;;;4.28;1.45;;;;;;;;;;5106188;28;20101;-68
2023/10/28 13:48:38;;;;;;;2.63;1.30;;;;;;;;;;5106515;28;20048;-68
2023/10/28 13:51:05;;;;;;;2.80;1.27;;;;;;;;;;5109740;28;20057;-68
2023/10/28 13:53:33;;;;;;;5.38;1.50;;;;;;;;;;5106633;28;20044;-68
2023/10/28 13:56:00;;;;;;;3.60;1.40;;;;;;;;;;5104206;28;20052;-68
2023/10/28 13:58:28;;;;;;;4.60;1.50;;;;;;;;;;5108747;28;20058;-68
2023/10/28 14:00:54;;;;;;;2.25;1.00;;;;;;;;;;5111049;28;20488;-68
2023/10/28 14:03:22;;;;;;;4.07;1.13;;;;;;;;;;5106160;28;20396;-68
2023/10/28 14:05:49;;;;;;;1.55;1.15;;;;;;;;;;5103078;28;20154;-68
2023/10/28 14:08:16;;;;;;;2.42;1.35;;;;;;;;;;5106606;28;20075;-68
2023/10/28 14:10:47;;;;;;;4.60;1.45;;;;;;;;;;5103943;28;20121;-68
2023/10/28 14:13:14;;;;;;;2.85;1.30;;;;;;;;;;5106412;28;20084;-69
2023/10/28 14:15:42;;;;;;;5.00;1.80;;;;;;;;;;5103133;28;20047;-68
2023/10/28 14:18:09;;;;;;;2.38;1.65;;;;;;;;;;5109870;28;20047;-68
2023/10/28 14:20:36;;;;;;;2.83;1.17;;;;;;;;;;5105786;28;20040;-68
2023/10/28 14:23:02;;;;;;;2.30;1.00;;;;;;;;;;5104016;28;20047;-68
2023/10/28 14:25:29;;;;;;;1.98;1.10;;;;;;;;;;5107879;28;20050;-68
2023/10/28 14:27:57;;;;;;;4.05;1.40;;;;;;;;;;5102309;28;20055;-68
2023/10/28 14:30:23;;;;;;;4.22;1.17;;;;;;;;;;5107859;28;20070;-68
2023/10/28 14:32:50;;;;;;;1.95;1.27;;;;;;;;;;5104777;28;20048;-68
2023/10/28 14:35:17;;;;;;;2.13;1.10;;;;;;;;;;5103436;28;20058;-68
2023/10/28 14:37:44;;;;;;;5.40;1.20;;;;;;;;;;5107489;28;20051;-68
2023/10/28 14:40:12;;;;;;;3.08;1.30;;;;;;;;;;5101641;28;20418;-68
2023/10/28 14:42:42;;;;;;;2.75;1.20;;;;;;;;;;5110276;28;20051;-68
2023/10/28 14:45:11;;;;;;;2.15;1.20;;;;;;;;;;5105748;28;20480;-68